sensor_id;sensor_type;location;lat;lon;timestamp;P1;durP1;ratioP1;P2;durP2;ratioP2
69979;SDS011;57318;56.232;43.944;2023-08-17T07:16:54;12.25;;;8.15;;
69979;SDS011;57318;56.232;43.944;2023-08-17T07:19:21;11.55;;;7.82;;
69979;SDS011;57318;56.232;43.944;2023-08-17T07:21:47;10.02;;;8.15;;
69979;SDS011;57318;56.232;43.944;2023-08-17T07:24:13;11.15;;;7.78;;
69979;SDS011;57318;56.232;43.944;2023-08-17T07:26:40;14.40;;;8.23;;
69979;SDS011;57318;56.232;43.944;2023-08-17T07:29:06;9.65;;;8.02;;
69979;SDS011;57318;56.232;43.944;2023-08-17T07:31:32;18.92;;;8.45;;
69979;SDS011;57318;56.232;43.944;2023-08-17T07:34:01;9.70;;;7.72;;
69979;SDS011;57318;56.232;43.944;2023-08-17T07:36:27;11.82;;;7.55;;
69979;SDS011;57318;56.232;43.944;2023-08-17T07:38:52;9.35;;;7.70;;
69979;SDS011;57318;56.232;43.944;2023-08-17T07:41:21;11.48;;;8.35;;
69979;SDS011;57318;56.232;43.944;2023-08-17T07:43:46;9.32;;;7.90;;
69979;SDS011;57318;56.232;43.944;2023-08-17T07:49:03;9.23;;;7.50;;
69979;SDS011;57318;56.232;43.944;2023-08-17T07:51:29;8.55;;;7.75;;
69979;SDS011;57318;56.232;43.944;2023-08-17T07:53:56;8.52;;;7.60;;
69979;SDS011;57318;56.232;43.944;2023-08-17T07:56:22;8.00;;;6.97;;
69979;SDS011;57318;56.232;43.944;2023-08-17T07:58:49;11.35;;;7.53;;
69979;SDS011;57318;56.232;43.944;2023-08-17T08:01:14;10.32;;;8.13;;
69979;SDS011;57318;56.232;43.944;2023-08-17T08:03:40;14.82;;;9.55;;
69979;SDS011;57318;56.232;43.944;2023-08-17T08:06:05;13.57;;;8.13;;
69979;SDS011;57318;56.232;43.944;2023-08-17T08:08:31;10.15;;;8.15;;
69979;SDS011;57318;56.232;43.944;2023-08-17T08:10:57;12.60;;;8.23;;
69979;SDS011;57318;56.232;43.944;2023-08-17T08:13:23;11.02;;;7.82;;
69979;SDS011;57318;56.232;43.944;2023-08-17T08:15:49;9.93;;;7.53;;
69979;SDS011;57318;56.232;43.944;2023-08-17T08:18:15;10.77;;;8.00;;
69979;SDS011;57318;56.232;43.944;2023-08-17T08:20:40;9.63;;;7.72;;
69979;SDS011;57318;56.232;43.944;2023-08-17T08:23:06;9.88;;;7.47;;
69979;SDS011;57318;56.232;43.944;2023-08-17T08:25:32;13.38;;;7.28;;
69979;SDS011;57318;56.232;43.944;2023-08-17T08:27:57;9.13;;;7.65;;
69979;SDS011;57318;56.232;43.944;2023-08-17T08:30:23;8.63;;;6.80;;
69979;SDS011;57318;56.232;43.944;2023-08-17T08:32:48;11.90;;;7.95;;
69979;SDS011;57318;56.232;43.944;2023-08-17T08:35:15;8.80;;;7.60;;
69979;SDS011;57318;56.232;43.944;2023-08-17T08:37:43;18.85;;;8.70;;
69979;SDS011;57318;56.232;43.944;2023-08-17T08:40:11;14.88;;;8.55;;
69979;SDS011;57318;56.232;43.944;2023-08-17T08:42:40;16.17;;;8.20;;
69979;SDS011;57318;56.232;43.944;2023-08-17T08:45:06;9.23;;;7.25;;
69979;SDS011;57318;56.232;43.944;2023-08-17T08:47:33;9.30;;;6.88;;
69979;SDS011;57318;56.232;43.944;2023-08-17T08:50:03;10.35;;;7.30;;
69979;SDS011;57318;56.232;43.944;2023-08-17T08:52:33;9.35;;;6.93;;
69979;SDS011;57318;56.232;43.944;2023-08-17T08:57:42;12.65;;;7.10;;
69979;SDS011;57318;56.232;43.944;2023-08-17T09:00:09;10.23;;;7.38;;
69979;SDS011;57318;56.232;43.944;2023-08-17T09:02:38;9.88;;;7.35;;
69979;SDS011;57318;56.232;43.944;2023-08-17T09:05:05;10.05;;;7.38;;
69979;SDS011;57318;56.232;43.944;2023-08-17T09:07:31;10.90;;;7.18;;
69979;SDS011;57318;56.232;43.944;2023-08-17T09:09:58;10.63;;;7.20;;
69979;SDS011;57318;56.232;43.944;2023-08-17T09:12:24;10.43;;;7.00;;
69979;SDS011;57318;56.232;43.944;2023-08-17T09:14:50;9.98;;;7.13;;
69979;SDS011;57318;56.232;43.944;2023-08-17T09:17:22;12.00;;;7.38;;
69979;SDS011;57318;56.232;43.944;2023-08-17T09:19:49;7.88;;;7.07;;
69979;SDS011;57318;56.232;43.944;2023-08-17T09:22:21;8.57;;;7.18;;
69979;SDS011;57318;56.232;43.944;2023-08-17T09:24:51;8.73;;;6.82;;
69979;SDS011;57318;56.232;43.944;2023-08-17T09:27:17;9.27;;;6.97;;
69979;SDS011;57318;56.232;43.944;2023-08-17T09:29:45;8.80;;;6.65;;
69979;SDS011;57318;56.232;43.944;2023-08-17T09:32:11;10.52;;;6.63;;
69979;SDS011;57318;56.232;43.944;2023-08-17T09:34:43;8.88;;;6.65;;
69979;SDS011;57318;56.232;43.944;2023-08-17T09:37:11;6.93;;;6.22;;
69979;SDS011;57318;56.232;43.944;2023-08-17T09:39:38;11.38;;;6.38;;
69979;SDS011;57318;56.232;43.944;2023-08-17T09:42:04;7.13;;;6.32;;
69979;SDS011;57318;56.232;43.944;2023-08-17T09:44:32;9.20;;;6.50;;
69979;SDS011;57318;56.232;43.944;2023-08-17T09:47:00;10.27;;;6.28;;
69979;SDS011;57318;56.232;43.944;2023-08-17T09:49:26;9.07;;;6.22;;
69979;SDS011;57318;56.232;43.944;2023-08-17T09:51:58;10.52;;;6.30;;
69979;SDS011;57318;56.232;43.944;2023-08-17T09:54:25;7.95;;;5.47;;
69979;SDS011;57318;56.232;43.944;2023-08-17T09:56:52;6.65;;;5.90;;
69979;SDS011;57318;56.232;43.944;2023-08-17T09:59:19;6.57;;;5.53;;
69979;SDS011;57318;56.232;43.944;2023-08-17T10:01:49;8.98;;;6.00;;
69979;SDS011;57318;56.232;43.944;2023-08-17T10:04:21;6.72;;;6.03;;
69979;SDS011;57318;56.232;43.944;2023-08-17T10:06:51;10.70;;;6.30;;
69979;SDS011;57318;56.232;43.944;2023-08-17T10:09:23;8.25;;;6.28;;
69979;SDS011;57318;56.232;43.944;2023-08-17T10:11:54;10.90;;;6.05;;
69979;SDS011;57318;56.232;43.944;2023-08-17T10:14:28;8.27;;;5.85;;
69979;SDS011;57318;56.232;43.944;2023-08-17T10:17:03;6.45;;;5.80;;
69979;SDS011;57318;56.232;43.944;2023-08-17T10:19:51;9.18;;;6.20;;
69979;SDS011;57318;56.232;43.944;2023-08-17T10:25:03;6.38;;;5.78;;
69979;SDS011;57318;56.232;43.944;2023-08-17T10:27:33;6.47;;;5.72;;
69979;SDS011;57318;56.232;43.944;2023-08-17T10:30:00;8.20;;;6.30;;
69979;SDS011;57318;56.232;43.944;2023-08-17T10:32:26;8.18;;;6.10;;
69979;SDS011;57318;56.232;43.944;2023-08-17T10:34:54;6.68;;;5.97;;
69979;SDS011;57318;56.232;43.944;2023-08-17T10:37:21;7.45;;;5.70;;
69979;SDS011;57318;56.232;43.944;2023-08-17T10:39:49;7.18;;;6.00;;
69979;SDS011;57318;56.232;43.944;2023-08-17T10:42:33;6.82;;;6.03;;
69979;SDS011;57318;56.232;43.944;2023-08-17T10:45:03;9.95;;;5.80;;
69979;SDS011;57318;56.232;43.944;2023-08-17T10:47:46;6.68;;;5.78;;
69979;SDS011;57318;56.232;43.944;2023-08-17T10:50:22;7.00;;;6.40;;
69979;SDS011;57318;56.232;43.944;2023-08-17T10:52:50;7.88;;;5.80;;
69979;SDS011;57318;56.232;43.944;2023-08-17T10:55:20;6.75;;;5.90;;
69979;SDS011;57318;56.232;43.944;2023-08-17T10:58:07;10.20;;;6.00;;
69979;SDS011;57318;56.232;43.944;2023-08-17T11:00:34;7.22;;;5.95;;
69979;SDS011;57318;56.232;43.944;2023-08-17T11:03:03;6.97;;;6.18;;
69979;SDS011;57318;56.232;43.944;2023-08-17T11:05:45;10.50;;;5.97;;
69979;SDS011;57318;56.232;43.944;2023-08-17T11:13:26;6.68;;;5.93;;
69979;SDS011;57318;56.232;43.944;2023-08-17T11:15:53;9.10;;;6.03;;
69979;SDS011;57318;56.232;43.944;2023-08-17T11:18:19;6.32;;;5.72;;
69979;SDS011;57318;56.232;43.944;2023-08-17T11:20:44;6.78;;;5.82;;
69979;SDS011;57318;56.232;43.944;2023-08-17T11:23:13;6.68;;;5.72;;
69979;SDS011;57318;56.232;43.944;2023-08-17T11:25:39;7.00;;;5.80;;
69979;SDS011;57318;56.232;43.944;2023-08-17T11:28:06;9.35;;;5.80;;
69979;SDS011;57318;56.232;43.944;2023-08-17T11:30:34;6.72;;;5.72;;
69979;SDS011;57318;56.232;43.944;2023-08-17T11:33:02;9.13;;;6.15;;
69979;SDS011;57318;56.232;43.944;2023-08-17T11:35:28;7.22;;;6.50;;
69979;SDS011;57318;56.232;43.944;2023-08-17T11:37:55;9.07;;;6.30;;
69979;SDS011;57318;56.232;43.944;2023-08-17T11:40:21;6.43;;;5.93;;
69979;SDS011;57318;56.232;43.944;2023-08-17T11:42:46;7.38;;;5.82;;
69979;SDS011;57318;56.232;43.944;2023-08-17T11:45:13;6.47;;;5.85;;
69979;SDS011;57318;56.232;43.944;2023-08-17T11:47:40;12.90;;;5.90;;
69979;SDS011;57318;56.232;43.944;2023-08-17T11:50:08;6.65;;;5.88;;
69979;SDS011;57318;56.232;43.944;2023-08-17T11:52:38;7.63;;;6.00;;
69979;SDS011;57318;56.232;43.944;2023-08-17T11:55:04;10.65;;;6.18;;
69979;SDS011;57318;56.232;43.944;2023-08-17T11:57:36;6.65;;;5.97;;
69979;SDS011;57318;56.232;43.944;2023-08-17T12:00:03;7.00;;;6.28;;
69979;SDS011;57318;56.232;43.944;2023-08-17T12:02:37;7.95;;;6.20;;
69979;SDS011;57318;56.232;43.944;2023-08-17T12:05:07;6.82;;;6.10;;
69979;SDS011;57318;56.232;43.944;2023-08-17T12:07:34;7.00;;;6.30;;
69979;SDS011;57318;56.232;43.944;2023-08-17T12:10:02;6.68;;;5.95;;
69979;SDS011;57318;56.232;43.944;2023-08-17T12:12:29;7.07;;;5.82;;
69979;SDS011;57318;56.232;43.944;2023-08-17T12:14:56;6.75;;;6.15;;
69979;SDS011;57318;56.232;43.944;2023-08-17T12:17:22;8.73;;;6.30;;
69979;SDS011;57318;56.232;43.944;2023-08-17T12:19:55;7.15;;;6.05;;
69979;SDS011;57318;56.232;43.944;2023-08-17T12:22:23;9.25;;;5.60;;
69979;SDS011;57318;56.232;43.944;2023-08-17T12:24:50;7.30;;;6.00;;
69979;SDS011;57318;56.232;43.944;2023-08-17T12:27:16;7.55;;;6.00;;
69979;SDS011;57318;56.232;43.944;2023-08-17T12:29:47;8.57;;;6.32;;
69979;SDS011;57318;56.232;43.944;2023-08-17T12:32:14;7.07;;;6.05;;
69979;SDS011;57318;56.232;43.944;2023-08-17T12:34:42;8.77;;;6.10;;
69979;SDS011;57318;56.232;43.944;2023-08-17T12:37:08;7.38;;;5.68;;
69979;SDS011;57318;56.232;43.944;2023-08-17T12:39:35;9.40;;;5.93;;
69979;SDS011;57318;56.232;43.944;2023-08-17T12:42:01;7.95;;;6.28;;
69979;SDS011;57318;56.232;43.944;2023-08-17T12:44:27;8.13;;;6.57;;
69979;SDS011;57318;56.232;43.944;2023-08-17T12:46:53;7.30;;;6.20;;
69979;SDS011;57318;56.232;43.944;2023-08-17T12:49:19;11.85;;;6.10;;
69979;SDS011;57318;56.232;43.944;2023-08-17T12:51:45;7.55;;;6.30;;
69979;SDS011;57318;56.232;43.944;2023-08-17T12:54:11;6.22;;;5.63;;
69979;SDS011;57318;56.232;43.944;2023-08-17T12:56:36;9.38;;;5.75;;
69979;SDS011;57318;56.232;43.944;2023-08-17T12:59:02;6.80;;;5.93;;
69979;SDS011;57318;56.232;43.944;2023-08-17T13:01:28;8.52;;;6.43;;
69979;SDS011;57318;56.232;43.944;2023-08-17T13:03:53;9.63;;;6.28;;
69979;SDS011;57318;56.232;43.944;2023-08-17T13:06:19;9.07;;;6.40;;
69979;SDS011;57318;56.232;43.944;2023-08-17T13:08:45;10.23;;;6.70;;
69979;SDS011;57318;56.232;43.944;2023-08-17T13:11:11;10.70;;;6.38;;
69979;SDS011;57318;56.232;43.944;2023-08-17T13:13:36;12.38;;;6.18;;
69979;SDS011;57318;56.232;43.944;2023-08-17T13:16:02;8.52;;;6.72;;
69979;SDS011;57318;56.232;43.944;2023-08-17T13:18:28;9.77;;;5.95;;
69979;SDS011;57318;56.232;43.944;2023-08-17T13:20:54;10.73;;;6.25;;
69979;SDS011;57318;56.232;43.944;2023-08-17T13:23:20;8.40;;;6.25;;
69979;SDS011;57318;56.232;43.944;2023-08-17T13:25:46;17.63;;;6.28;;
69979;SDS011;57318;56.232;43.944;2023-08-17T13:28:11;11.52;;;6.45;;
69979;SDS011;57318;56.232;43.944;2023-08-17T13:30:40;18.20;;;6.28;;
69979;SDS011;57318;56.232;43.944;2023-08-17T13:33:05;7.95;;;6.72;;
69979;SDS011;57318;56.232;43.944;2023-08-17T13:35:32;12.30;;;6.55;;
69979;SDS011;57318;56.232;43.944;2023-08-17T13:37:58;9.40;;;6.63;;
69979;SDS011;57318;56.232;43.944;2023-08-17T13:40:24;7.95;;;6.03;;
69979;SDS011;57318;56.232;43.944;2023-08-17T13:42:50;7.47;;;6.43;;
69979;SDS011;57318;56.232;43.944;2023-08-17T13:45:16;8.68;;;6.40;;
69979;SDS011;57318;56.232;43.944;2023-08-17T13:47:42;11.50;;;7.00;;
69979;SDS011;57318;56.232;43.944;2023-08-17T13:50:08;7.40;;;6.50;;
69979;SDS011;57318;56.232;43.944;2023-08-17T13:52:34;8.52;;;6.88;;
69979;SDS011;57318;56.232;43.944;2023-08-17T13:55:00;7.43;;;6.60;;
69979;SDS011;57318;56.232;43.944;2023-08-17T13:57:25;13.25;;;6.57;;
69979;SDS011;57318;56.232;43.944;2023-08-17T13:59:51;7.72;;;6.13;;
69979;SDS011;57318;56.232;43.944;2023-08-17T14:02:17;10.38;;;6.70;;
69979;SDS011;57318;56.232;43.944;2023-08-17T14:04:43;8.23;;;6.82;;
69979;SDS011;57318;56.232;43.944;2023-08-17T14:07:09;13.63;;;7.05;;
69979;SDS011;57318;56.232;43.944;2023-08-17T14:09:35;12.00;;;7.18;;
69979;SDS011;57318;56.232;43.944;2023-08-17T14:12:00;15.23;;;7.10;;
69979;SDS011;57318;56.232;43.944;2023-08-17T14:14:26;11.60;;;6.50;;
69979;SDS011;57318;56.232;43.944;2023-08-17T14:16:52;9.10;;;6.78;;
69979;SDS011;57318;56.232;43.944;2023-08-17T14:19:18;11.48;;;7.18;;
69979;SDS011;57318;56.232;43.944;2023-08-17T14:21:43;10.25;;;6.93;;
69979;SDS011;57318;56.232;43.944;2023-08-17T14:24:09;9.10;;;6.60;;
69979;SDS011;57318;56.232;43.944;2023-08-17T14:26:35;9.45;;;6.38;;
69979;SDS011;57318;56.232;43.944;2023-08-17T14:29:00;8.80;;;7.43;;
69979;SDS011;57318;56.232;43.944;2023-08-17T14:31:26;12.88;;;7.22;;
69979;SDS011;57318;56.232;43.944;2023-08-17T14:33:51;11.27;;;6.78;;
69979;SDS011;57318;56.232;43.944;2023-08-17T14:36:17;12.45;;;7.22;;
69979;SDS011;57318;56.232;43.944;2023-08-17T14:38:43;9.77;;;7.13;;
69979;SDS011;57318;56.232;43.944;2023-08-17T14:41:08;9.38;;;6.78;;
69979;SDS011;57318;56.232;43.944;2023-08-17T14:43:34;10.15;;;6.78;;
69979;SDS011;57318;56.232;43.944;2023-08-17T14:46:00;13.13;;;6.90;;
69979;SDS011;57318;56.232;43.944;2023-08-17T14:48:26;10.10;;;6.70;;
69979;SDS011;57318;56.232;43.944;2023-08-17T14:50:51;9.85;;;7.45;;
69979;SDS011;57318;56.232;43.944;2023-08-17T14:53:17;9.38;;;7.00;;
69979;SDS011;57318;56.232;43.944;2023-08-17T14:55:43;13.10;;;7.25;;
69979;SDS011;57318;56.232;43.944;2023-08-17T14:58:08;11.75;;;7.68;;
69979;SDS011;57318;56.232;43.944;2023-08-17T15:00:34;11.73;;;7.15;;
69979;SDS011;57318;56.232;43.944;2023-08-17T15:03:00;11.60;;;7.30;;
69979;SDS011;57318;56.232;43.944;2023-08-17T15:05:28;12.05;;;7.60;;
69979;SDS011;57318;56.232;43.944;2023-08-17T15:07:54;8.80;;;6.82;;
69979;SDS011;57318;56.232;43.944;2023-08-17T15:10:19;13.90;;;7.07;;
69979;SDS011;57318;56.232;43.944;2023-08-17T15:12:45;11.40;;;7.32;;
69979;SDS011;57318;56.232;43.944;2023-08-17T15:15:11;8.68;;;7.20;;
69979;SDS011;57318;56.232;43.944;2023-08-17T15:17:37;11.45;;;7.35;;
69979;SDS011;57318;56.232;43.944;2023-08-17T15:20:02;9.63;;;7.25;;
69979;SDS011;57318;56.232;43.944;2023-08-17T15:22:29;8.73;;;7.30;;
69979;SDS011;57318;56.232;43.944;2023-08-17T15:24:55;12.45;;;7.60;;
69979;SDS011;57318;56.232;43.944;2023-08-17T15:27:21;18.58;;;8.65;;
69979;SDS011;57318;56.232;43.944;2023-08-17T15:32:12;15.15;;;7.55;;
69979;SDS011;57318;56.232;43.944;2023-08-17T15:37:05;9.52;;;7.60;;
69979;SDS011;57318;56.232;43.944;2023-08-17T15:39:31;11.25;;;8.27;;
69979;SDS011;57318;56.232;43.944;2023-08-17T15:44:23;10.15;;;7.68;;
69979;SDS011;57318;56.232;43.944;2023-08-17T15:46:49;11.95;;;7.85;;
69979;SDS011;57318;56.232;43.944;2023-08-17T15:49:16;11.80;;;7.80;;
69979;SDS011;57318;56.232;43.944;2023-08-17T15:51:42;13.80;;;7.97;;
69979;SDS011;57318;56.232;43.944;2023-08-17T15:54:08;14.73;;;8.23;;
69979;SDS011;57318;56.232;43.944;2023-08-17T15:56:33;12.05;;;7.85;;
69979;SDS011;57318;56.232;43.944;2023-08-17T15:58:59;14.65;;;8.98;;
69979;SDS011;57318;56.232;43.944;2023-08-17T16:01:25;14.55;;;8.20;;
69979;SDS011;57318;56.232;43.944;2023-08-17T16:03:52;15.25;;;8.98;;
69979;SDS011;57318;56.232;43.944;2023-08-17T16:06:17;14.25;;;8.27;;
69979;SDS011;57318;56.232;43.944;2023-08-17T16:08:43;12.60;;;8.73;;
69979;SDS011;57318;56.232;43.944;2023-08-17T16:11:09;12.50;;;8.10;;
69979;SDS011;57318;56.232;43.944;2023-08-17T16:16:01;11.18;;;8.52;;
69979;SDS011;57318;56.232;43.944;2023-08-17T16:18:27;17.50;;;8.68;;
69979;SDS011;57318;56.232;43.944;2023-08-17T16:20:53;18.05;;;8.90;;
69979;SDS011;57318;56.232;43.944;2023-08-17T16:23:18;12.32;;;8.27;;
69979;SDS011;57318;56.232;43.944;2023-08-17T16:25:45;13.93;;;8.30;;
69979;SDS011;57318;56.232;43.944;2023-08-17T16:28:10;16.77;;;8.55;;
69979;SDS011;57318;56.232;43.944;2023-08-17T16:30:36;16.85;;;8.40;;
69979;SDS011;57318;56.232;43.944;2023-08-17T16:35:29;10.83;;;8.33;;
69979;SDS011;57318;56.232;43.944;2023-08-17T16:37:55;15.25;;;8.50;;
69979;SDS011;57318;56.232;43.944;2023-08-17T16:40:20;12.70;;;8.23;;
69979;SDS011;57318;56.232;43.944;2023-08-17T16:42:46;11.75;;;8.40;;
69979;SDS011;57318;56.232;43.944;2023-08-17T16:45:15;9.85;;;8.13;;
69979;SDS011;57318;56.232;43.944;2023-08-17T16:47:43;11.68;;;8.18;;
69979;SDS011;57318;56.232;43.944;2023-08-17T16:50:09;13.85;;;7.80;;
69979;SDS011;57318;56.232;43.944;2023-08-17T16:52:35;12.35;;;8.25;;
69979;SDS011;57318;56.232;43.944;2023-08-17T16:55:01;15.45;;;8.25;;
69979;SDS011;57318;56.232;43.944;2023-08-17T16:57:26;13.45;;;8.52;;
69979;SDS011;57318;56.232;43.944;2023-08-17T16:59:52;11.35;;;8.25;;
69979;SDS011;57318;56.232;43.944;2023-08-17T17:02:17;13.73;;;8.10;;
69979;SDS011;57318;56.232;43.944;2023-08-17T17:04:43;10.77;;;7.57;;
69979;SDS011;57318;56.232;43.944;2023-08-17T17:07:09;16.23;;;8.77;;
69979;SDS011;57318;56.232;43.944;2023-08-17T17:09:34;12.98;;;8.02;;
69979;SDS011;57318;56.232;43.944;2023-08-17T17:12:00;17.60;;;8.20;;
69979;SDS011;57318;56.232;43.944;2023-08-17T17:14:28;17.73;;;8.90;;
69979;SDS011;57318;56.232;43.944;2023-08-17T17:16:53;12.55;;;8.82;;
69979;SDS011;57318;56.232;43.944;2023-08-17T17:19:19;14.00;;;9.23;;
69979;SDS011;57318;56.232;43.944;2023-08-17T17:21:45;14.93;;;9.45;;
69979;SDS011;57318;56.232;43.944;2023-08-17T17:24:11;16.75;;;10.07;;
69979;SDS011;57318;56.232;43.944;2023-08-17T17:26:36;13.03;;;9.53;;
69979;SDS011;57318;56.232;43.944;2023-08-17T17:29:05;15.57;;;9.27;;
69979;SDS011;57318;56.232;43.944;2023-08-17T17:31:32;14.70;;;9.75;;
69979;SDS011;57318;56.232;43.944;2023-08-17T17:33:59;18.17;;;10.00;;
69979;SDS011;57318;56.232;43.944;2023-08-17T17:36:25;17.45;;;9.68;;
69979;SDS011;57318;56.232;43.944;2023-08-17T17:38:51;17.10;;;9.60;;
69979;SDS011;57318;56.232;43.944;2023-08-17T17:41:17;15.48;;;10.02;;
69979;SDS011;57318;56.232;43.944;2023-08-17T17:43:46;12.73;;;9.35;;
69979;SDS011;57318;56.232;43.944;2023-08-17T17:46:12;13.25;;;9.40;;
69979;SDS011;57318;56.232;43.944;2023-08-17T17:48:38;17.88;;;9.90;;
69979;SDS011;57318;56.232;43.944;2023-08-17T17:51:03;16.70;;;9.13;;
69979;SDS011;57318;56.232;43.944;2023-08-17T17:53:29;17.20;;;10.57;;
69979;SDS011;57318;56.232;43.944;2023-08-17T17:55:55;19.02;;;10.20;;
69979;SDS011;57318;56.232;43.944;2023-08-17T17:58:21;15.68;;;10.07;;
69979;SDS011;57318;56.232;43.944;2023-08-17T18:00:47;14.85;;;9.70;;
69979;SDS011;57318;56.232;43.944;2023-08-17T18:03:13;14.35;;;9.40;;
69979;SDS011;57318;56.232;43.944;2023-08-17T18:05:40;14.90;;;9.15;;
69979;SDS011;57318;56.232;43.944;2023-08-17T18:08:07;17.10;;;9.52;;
69979;SDS011;57318;56.232;43.944;2023-08-17T18:10:36;12.43;;;9.40;;
69979;SDS011;57318;56.232;43.944;2023-08-17T18:13:02;14.77;;;9.23;;
69979;SDS011;57318;56.232;43.944;2023-08-17T18:15:29;13.40;;;9.32;;
69979;SDS011;57318;56.232;43.944;2023-08-17T18:17:54;12.23;;;9.70;;
69979;SDS011;57318;56.232;43.944;2023-08-17T18:20:20;18.30;;;9.20;;
69979;SDS011;57318;56.232;43.944;2023-08-17T18:22:46;13.45;;;10.05;;
69979;SDS011;57318;56.232;43.944;2023-08-17T18:25:11;16.53;;;9.83;;
69979;SDS011;57318;56.232;43.944;2023-08-17T18:27:39;16.83;;;10.07;;
69979;SDS011;57318;56.232;43.944;2023-08-17T18:30:05;14.10;;;10.63;;
69979;SDS011;57318;56.232;43.944;2023-08-17T18:32:33;13.20;;;9.65;;
69979;SDS011;57318;56.232;43.944;2023-08-17T18:34:59;14.75;;;9.85;;
69979;SDS011;57318;56.232;43.944;2023-08-17T18:37:25;14.38;;;10.00;;
69979;SDS011;57318;56.232;43.944;2023-08-17T18:39:53;13.73;;;10.35;;
69979;SDS011;57318;56.232;43.944;2023-08-17T18:42:20;19.10;;;10.48;;
69979;SDS011;57318;56.232;43.944;2023-08-17T18:44:52;15.07;;;10.52;;
69979;SDS011;57318;56.232;43.944;2023-08-17T18:47:18;15.88;;;11.45;;
69979;SDS011;57318;56.232;43.944;2023-08-17T18:49:43;14.73;;;10.77;;
69979;SDS011;57318;56.232;43.944;2023-08-17T18:52:09;18.35;;;10.90;;
69979;SDS011;57318;56.232;43.944;2023-08-17T18:54:35;16.98;;;10.32;;
69979;SDS011;57318;56.232;43.944;2023-08-17T18:57:00;19.07;;;10.20;;
69979;SDS011;57318;56.232;43.944;2023-08-17T18:59:26;15.07;;;10.53;;
69979;SDS011;57318;56.232;43.944;2023-08-17T19:01:52;16.90;;;10.77;;
69979;SDS011;57318;56.232;43.944;2023-08-17T19:04:18;14.52;;;9.85;;
69979;SDS011;57318;56.232;43.944;2023-08-17T19:06:44;13.20;;;10.13;;
69979;SDS011;57318;56.232;43.944;2023-08-17T19:09:10;17.67;;;10.50;;
69979;SDS011;57318;56.232;43.944;2023-08-17T19:11:35;17.33;;;10.20;;
69979;SDS011;57318;56.232;43.944;2023-08-17T19:14:01;17.75;;;10.30;;
69979;SDS011;57318;56.232;43.944;2023-08-17T19:16:29;16.00;;;10.45;;
69979;SDS011;57318;56.232;43.944;2023-08-17T19:18:55;16.33;;;10.20;;
69979;SDS011;57318;56.232;43.944;2023-08-17T19:21:21;17.42;;;10.43;;
69979;SDS011;57318;56.232;43.944;2023-08-17T19:23:47;12.25;;;10.10;;
69979;SDS011;57318;56.232;43.944;2023-08-17T19:26:13;16.35;;;10.55;;
69979;SDS011;57318;56.232;43.944;2023-08-17T19:28:39;14.55;;;10.30;;
69979;SDS011;57318;56.232;43.944;2023-08-17T19:31:04;15.47;;;10.50;;
69979;SDS011;57318;56.232;43.944;2023-08-17T19:33:30;11.60;;;10.07;;
69979;SDS011;57318;56.232;43.944;2023-08-17T19:35:55;15.27;;;9.93;;
69979;SDS011;57318;56.232;43.944;2023-08-17T19:38:21;11.48;;;9.88;;
69979;SDS011;57318;56.232;43.944;2023-08-17T19:40:47;16.40;;;10.07;;
69979;SDS011;57318;56.232;43.944;2023-08-17T19:43:13;19.45;;;10.65;;
69979;SDS011;57318;56.232;43.944;2023-08-17T19:45:40;26.85;;;10.88;;
69979;SDS011;57318;56.232;43.944;2023-08-17T19:50:31;16.85;;;9.55;;
69979;SDS011;57318;56.232;43.944;2023-08-17T19:52:57;16.42;;;9.27;;
69979;SDS011;57318;56.232;43.944;2023-08-17T19:55:23;12.75;;;9.05;;
69979;SDS011;57318;56.232;43.944;2023-08-17T19:57:49;12.15;;;9.10;;
69979;SDS011;57318;56.232;43.944;2023-08-17T20:00:14;10.63;;;9.10;;
69979;SDS011;57318;56.232;43.944;2023-08-17T20:02:40;14.23;;;9.43;;
69979;SDS011;57318;56.232;43.944;2023-08-17T20:05:06;12.13;;;8.82;;
69979;SDS011;57318;56.232;43.944;2023-08-17T20:07:33;11.48;;;8.75;;
69979;SDS011;57318;56.232;43.944;2023-08-17T20:09:59;10.80;;;9.15;;
69979;SDS011;57318;56.232;43.944;2023-08-17T20:12:25;12.88;;;9.60;;
69979;SDS011;57318;56.232;43.944;2023-08-17T20:14:51;11.77;;;9.23;;
69979;SDS011;57318;56.232;43.944;2023-08-17T20:17:17;12.70;;;8.80;;
69979;SDS011;57318;56.232;43.944;2023-08-17T20:19:42;14.60;;;9.18;;
69979;SDS011;57318;56.232;43.944;2023-08-17T20:22:09;12.45;;;9.25;;
69979;SDS011;57318;56.232;43.944;2023-08-17T20:24:35;13.43;;;9.27;;
69979;SDS011;57318;56.232;43.944;2023-08-17T20:27:01;13.55;;;9.45;;
69979;SDS011;57318;56.232;43.944;2023-08-17T20:29:27;14.25;;;10.23;;
69979;SDS011;57318;56.232;43.944;2023-08-17T20:34:20;13.35;;;9.68;;
69979;SDS011;57318;56.232;43.944;2023-08-17T20:36:45;14.93;;;8.93;;
69979;SDS011;57318;56.232;43.944;2023-08-17T20:39:11;16.02;;;9.80;;
69979;SDS011;57318;56.232;43.944;2023-08-17T20:41:37;13.00;;;9.67;;
69979;SDS011;57318;56.232;43.944;2023-08-17T20:44:02;11.13;;;9.43;;
69979;SDS011;57318;56.232;43.944;2023-08-17T20:46:28;13.18;;;10.02;;
69979;SDS011;57318;56.232;43.944;2023-08-17T20:48:57;13.93;;;9.52;;
69979;SDS011;57318;56.232;43.944;2023-08-17T20:51:24;12.38;;;9.30;;
69979;SDS011;57318;56.232;43.944;2023-08-17T20:56:17;15.87;;;9.43;;
69979;SDS011;57318;56.232;43.944;2023-08-17T20:58:42;13.77;;;10.55;;
69979;SDS011;57318;56.232;43.944;2023-08-17T21:01:08;12.00;;;9.38;;
69979;SDS011;57318;56.232;43.944;2023-08-17T21:03:34;15.10;;;9.20;;
69979;SDS011;57318;56.232;43.944;2023-08-17T21:06:07;13.65;;;9.05;;
69979;SDS011;57318;56.232;43.944;2023-08-17T21:08:34;10.98;;;8.98;;
69979;SDS011;57318;56.232;43.944;2023-08-17T21:11:00;11.90;;;9.43;;
69979;SDS011;57318;56.232;43.944;2023-08-17T21:13:27;11.52;;;9.32;;
69979;SDS011;57318;56.232;43.944;2023-08-17T21:16:05;20.57;;;9.60;;
69979;SDS011;57318;56.232;43.944;2023-08-17T21:18:32;14.45;;;9.55;;
69979;SDS011;57318;56.232;43.944;2023-08-17T21:20:58;12.52;;;9.43;;
69979;SDS011;57318;56.232;43.944;2023-08-17T21:23:24;15.00;;;9.52;;
69979;SDS011;57318;56.232;43.944;2023-08-17T21:25:51;13.75;;;9.05;;
69979;SDS011;57318;56.232;43.944;2023-08-17T21:28:18;11.30;;;9.07;;
69979;SDS011;57318;56.232;43.944;2023-08-17T21:30:44;17.98;;;9.10;;
69979;SDS011;57318;56.232;43.944;2023-08-17T21:33:10;13.02;;;9.45;;
69979;SDS011;57318;56.232;43.944;2023-08-17T21:35:35;14.23;;;9.82;;
69979;SDS011;57318;56.232;43.944;2023-08-17T21:38:01;14.60;;;9.63;;
69979;SDS011;57318;56.232;43.944;2023-08-17T21:40:28;14.98;;;9.60;;
69979;SDS011;57318;56.232;43.944;2023-08-17T21:45:20;14.65;;;9.35;;
69979;SDS011;57318;56.232;43.944;2023-08-17T21:47:49;11.23;;;8.68;;
69979;SDS011;57318;56.232;43.944;2023-08-17T21:50:16;14.77;;;9.05;;
69979;SDS011;57318;56.232;43.944;2023-08-17T21:55:08;13.07;;;10.00;;
69979;SDS011;57318;56.232;43.944;2023-08-17T21:57:33;12.75;;;9.88;;
69979;SDS011;57318;56.232;43.944;2023-08-17T21:59:59;16.83;;;10.20;;
69979;SDS011;57318;56.232;43.944;2023-08-17T22:02:25;14.40;;;10.13;;
69979;SDS011;57318;56.232;43.944;2023-08-17T22:04:50;14.57;;;10.57;;
69979;SDS011;57318;56.232;43.944;2023-08-17T22:07:16;27.90;;;12.37;;
69979;SDS011;57318;56.232;43.944;2023-08-17T22:09:42;16.33;;;10.70;;
69979;SDS011;57318;56.232;43.944;2023-08-17T22:12:07;18.13;;;11.07;;
69979;SDS011;57318;56.232;43.944;2023-08-17T22:14:33;18.13;;;11.90;;